createdAt,value
2018-05-25T00:01:54.337Z,14.85
2018-05-25T00:06:27.553Z,14.32
2018-05-25T00:11:00.742Z,12.70
2018-05-25T00:15:34.701Z,12.82
2018-05-25T00:20:07.885Z,11.70
2018-05-25T00:24:41.092Z,12.27
2018-05-25T00:29:14.333Z,12.65
2018-05-25T00:33:47.577Z,11.77
2018-05-25T00:38:20.796Z,12.95
2018-05-25T00:42:54.762Z,10.65
2018-05-25T00:47:28.018Z,11.32
2018-05-25T00:52:01.978Z,15.05
2018-05-25T00:56:35.206Z,13.43
2018-05-25T01:01:08.425Z,11.20
2018-05-25T01:05:41.637Z,11.93
2018-05-25T01:10:14.862Z,12.85
2018-05-25T01:14:48.862Z,13.43
2018-05-25T01:19:22.055Z,15.00
2018-05-25T01:23:55.247Z,16.77
2018-05-25T01:28:28.521Z,16.40
2018-05-25T01:33:02.478Z,17.23
2018-05-25T01:37:35.666Z,17.92
2018-05-25T01:42:08.890Z,15.05
2018-05-25T01:46:42.094Z,15.60
2018-05-25T01:51:15.285Z,14.23
2018-05-25T01:55:48.505Z,14.85
2018-05-25T02:00:21.705Z,12.60
2018-05-25T02:04:54.902Z,13.45
2018-05-25T02:09:28.886Z,13.55
2018-05-25T02:14:02.078Z,13.25
2018-05-25T02:18:35.295Z,12.55
2018-05-25T02:23:08.497Z,13.05
2018-05-25T02:27:41.657Z,14.15
2018-05-25T02:32:14.877Z,13.98
2018-05-25T02:36:48.382Z,13.80
2018-05-25T02:41:21.660Z,15.38
2018-05-25T02:45:54.949Z,15.95
2018-05-25T02:50:28.288Z,16.70
2018-05-25T02:55:02.350Z,14.57
2018-05-25T02:59:35.574Z,16.80
2018-05-25T03:04:08.804Z,20.52
2018-05-25T03:08:42.785Z,16.85
2018-05-25T03:13:15.982Z,17.42
2018-05-25T03:17:49.170Z,18.20
2018-05-25T03:22:23.191Z,13.93
2018-05-25T03:26:57.255Z,14.05
2018-05-25T03:31:30.478Z,11.77
2018-05-25T03:36:03.836Z,13.68
2018-05-25T03:40:37.833Z,14.43
2018-05-25T03:45:11.000Z,15.07
2018-05-25T03:49:44.194Z,15.60
2018-05-25T03:54:17.445Z,14.95
2018-05-25T03:59:02.424Z,15.02
2018-05-25T04:03:35.615Z,15.77
2018-05-25T04:08:08.834Z,14.65
2018-05-25T04:12:42.030Z,15.38
2018-05-25T04:17:16.133Z,15.40
2018-05-25T04:21:49.351Z,17.02
2018-05-25T04:26:22.857Z,18.00
2018-05-25T04:30:56.137Z,18.00
2018-05-25T04:35:30.169Z,19.08
2018-05-25T04:40:06.363Z,18.62
2018-05-25T04:44:40.382Z,20.50
2018-05-25T04:49:13.578Z,20.27
2018-05-25T04:53:47.547Z,19.27
2018-05-25T04:58:20.918Z,20.42
2018-05-25T05:02:55.073Z,19.02
2018-05-25T05:07:28.343Z,20.90
2018-05-25T05:12:02.322Z,19.55
2018-05-25T05:16:35.485Z,19.65
2018-05-25T05:21:09.443Z,22.13
2018-05-25T05:25:42.650Z,20.77
2018-05-25T05:30:15.848Z,20.30
2018-05-25T05:34:49.054Z,22.50
2018-05-25T05:39:22.301Z,22.80
2018-05-25T05:43:55.522Z,22.37
2018-05-25T05:48:28.714Z,23.12
2018-05-25T05:53:01.906Z,23.92
2018-05-25T05:57:35.129Z,25.52
2018-05-25T06:02:08.324Z,24.83
2018-05-25T06:06:41.514Z,23.45
2018-05-25T06:11:14.705Z,22.65
2018-05-25T06:15:47.901Z,22.10
2018-05-25T06:20:21.138Z,22.55
2018-05-25T06:24:54.354Z,22.40
2018-05-25T06:29:27.577Z,22.65
2018-05-25T06:34:00.798Z,24.77
2018-05-25T06:38:34.786Z,24.17
2018-05-25T06:43:08.006Z,22.70
2018-05-25T06:47:41.198Z,25.08
2018-05-25T06:52:14.370Z,26.02
2018-05-25T06:56:47.662Z,23.87
2018-05-25T07:01:21.642Z,23.67
2018-05-25T07:05:54.992Z,22.67
2018-05-25T07:10:28.948Z,22.77
2018-05-25T07:15:02.178Z,22.55
2018-05-25T07:19:35.387Z,23.38
2018-05-25T07:24:08.609Z,23.83
2018-05-25T07:28:41.804Z,23.65
2018-05-25T07:33:15.026Z,23.25
2018-05-25T07:37:49.754Z,25.02
2018-05-25T07:42:22.955Z,22.00
2018-05-25T07:46:56.219Z,23.17
2018-05-25T07:51:30.206Z,24.15
2018-05-25T07:56:03.414Z,27.05
2018-05-25T08:00:36.619Z,27.75
2018-05-25T08:05:10.498Z,28.27
2018-05-25T08:09:43.686Z,28.62
2018-05-25T08:14:17.637Z,27.85
2018-05-25T08:18:50.876Z,25.65
2018-05-25T08:23:24.061Z,24.12
2018-05-25T08:27:57.342Z,26.20
2018-05-25T08:32:30.563Z,23.55
2018-05-25T08:37:03.777Z,26.23
2018-05-25T08:41:36.990Z,24.67
2018-05-25T08:46:10.213Z,23.65
2018-05-25T08:50:43.794Z,20.30
2018-05-25T08:55:16.989Z,19.52
2018-05-25T08:59:50.183Z,21.27
2018-05-25T09:04:24.190Z,18.85
2018-05-25T09:08:57.423Z,17.73
2018-05-25T09:13:30.653Z,16.55
2018-05-25T09:18:03.854Z,16.75
2018-05-25T09:22:37.062Z,21.00
2018-05-25T09:27:10.314Z,19.17
2018-05-25T09:31:43.545Z,20.15
2018-05-25T09:36:17.525Z,19.37
2018-05-25T09:40:50.741Z,18.48
2018-05-25T09:45:23.961Z,17.05
2018-05-25T09:49:57.337Z,16.12
2018-05-25T09:54:30.525Z,14.93
2018-05-25T09:59:03.778Z,13.40
2018-05-25T10:03:37.030Z,14.30
2018-05-25T10:08:10.199Z,12.37
2018-05-25T10:12:43.463Z,13.02
2018-05-25T10:17:16.678Z,11.68
2018-05-25T10:21:49.890Z,9.20
2018-05-25T10:26:23.098Z,8.82
2018-05-25T10:30:56.322Z,8.52
2018-05-25T10:35:29.505Z,6.60
2018-05-25T10:40:02.719Z,6.47
2018-05-25T10:44:35.992Z,6.28
2018-05-25T10:49:09.392Z,6.50
2018-05-25T10:53:43.361Z,6.87
2018-05-25T10:58:16.546Z,5.93
2018-05-25T11:02:49.802Z,5.57
2018-05-25T11:07:22.957Z,4.82
2018-05-25T11:11:56.405Z,3.90
2018-05-25T11:16:29.652Z,3.45
2018-05-25T11:21:03.684Z,3.60
2018-05-25T11:25:37.685Z,3.10
2018-05-25T11:30:10.871Z,3.60
2018-05-25T11:34:44.201Z,3.35
2018-05-25T11:39:17.389Z,3.17
2018-05-25T11:43:50.737Z,3.55
2018-05-25T11:48:24.697Z,3.33
2018-05-25T11:52:57.953Z,3.83
2018-05-25T11:57:31.106Z,3.33
2018-05-25T12:02:04.382Z,3.90
2018-05-25T12:06:38.350Z,3.70
2018-05-25T12:11:11.586Z,3.95
2018-05-25T12:15:44.765Z,3.87
2018-05-25T12:20:17.990Z,4.18
2018-05-25T12:24:51.195Z,3.35
2018-05-25T12:29:24.412Z,3.47
2018-05-25T12:33:57.643Z,3.33
2018-05-25T12:38:31.629Z,3.80
2018-05-25T12:43:04.794Z,3.17
2018-05-25T12:47:38.022Z,3.37
2018-05-25T12:52:11.260Z,3.40
2018-05-25T12:56:44.673Z,3.85
2018-05-25T13:01:17.866Z,4.10
2018-05-25T13:05:51.023Z,4.15
2018-05-25T13:10:24.998Z,3.83
2018-05-25T13:14:58.161Z,3.85
2018-05-25T13:19:31.390Z,3.90
2018-05-25T13:24:04.667Z,4.03
2018-05-25T13:28:37.970Z,4.47
2018-05-25T13:33:11.969Z,4.10
2018-05-25T13:37:45.317Z,3.80
2018-05-25T13:42:19.007Z,4.10
2018-05-25T13:46:52.916Z,3.80
2018-05-25T13:51:27.846Z,3.72
2018-05-25T13:56:01.353Z,3.72
2018-05-25T14:00:34.622Z,4.15
2018-05-25T14:05:08.657Z,4.40
2018-05-25T14:09:41.897Z,4.25
2018-05-25T14:14:15.105Z,4.03
2018-05-25T14:18:48.322Z,4.28
2018-05-25T14:23:21.511Z,4.25
2018-05-25T14:27:54.777Z,4.00
2018-05-25T14:32:28.721Z,4.30
2018-05-25T14:37:02.010Z,4.70
2018-05-25T14:41:36.003Z,4.45
2018-05-25T14:46:09.238Z,4.07
2018-05-25T14:50:43.594Z,3.83
2018-05-25T14:55:16.803Z,3.75
2018-05-25T14:59:50.061Z,4.05
2018-05-25T15:04:23.294Z,4.00
2018-05-25T15:08:57.285Z,3.83
2018-05-25T15:13:30.938Z,4.28
2018-05-25T15:18:04.890Z,4.15
2018-05-25T15:22:38.390Z,3.92
2018-05-25T15:27:12.344Z,3.50
2018-05-25T15:31:45.575Z,4.28
2018-05-25T15:36:18.831Z,3.75
2018-05-25T15:40:52.055Z,4.32
2018-05-25T15:45:25.270Z,4.20
2018-05-25T15:49:58.446Z,3.83
2018-05-25T15:54:37.646Z,3.78
2018-05-25T15:59:11.165Z,3.53
2018-05-25T16:03:45.010Z,3.80
2018-05-25T16:08:20.186Z,3.83
2018-05-25T16:12:57.685Z,3.90
2018-05-25T16:17:31.026Z,3.78
2018-05-25T16:22:04.679Z,4.18
2018-05-25T16:26:37.871Z,4.40
2018-05-25T16:31:11.077Z,4.70
2018-05-25T16:35:44.289Z,4.65
2018-05-25T16:40:17.515Z,3.78
2018-05-25T16:44:51.507Z,3.78
2018-05-25T16:49:24.742Z,3.80
2018-05-25T16:53:57.926Z,4.10
2018-05-25T16:58:31.114Z,4.30
2018-05-25T17:03:04.294Z,4.03
2018-05-25T17:07:37.519Z,5.12
2018-05-25T17:12:10.725Z,2.97
2018-05-25T17:16:43.910Z,3.30
2018-05-25T17:21:17.950Z,3.45
2018-05-25T17:25:51.105Z,3.92
2018-05-25T17:30:24.334Z,4.57
2018-05-25T17:34:57.535Z,12.77
2018-05-25T17:39:30.778Z,3.42
2018-05-25T17:44:04.062Z,3.67
2018-05-25T17:48:38.011Z,4.43
2018-05-25T17:53:11.226Z,3.75
2018-05-25T17:57:44.412Z,3.80
2018-05-25T18:02:17.600Z,3.85
2018-05-25T18:06:50.790Z,3.25
2018-05-25T18:11:23.994Z,4.87
2018-05-25T18:15:57.182Z,5.00
2018-05-25T18:20:30.397Z,4.07
2018-05-25T18:25:03.558Z,4.82
2018-05-25T18:29:36.775Z,4.87
2018-05-25T18:34:09.931Z,5.15
2018-05-25T18:38:43.147Z,5.00
2018-05-25T18:43:16.365Z,5.72
2018-05-25T18:47:50.379Z,8.98
2018-05-25T18:52:23.563Z,6.60
2018-05-25T18:56:56.722Z,6.40
2018-05-25T19:01:29.984Z,6.30
2018-05-25T19:06:03.175Z,6.60
2018-05-25T19:10:36.366Z,6.93
2018-05-25T19:15:09.585Z,6.78
2018-05-25T19:19:42.794Z,7.90
2018-05-25T19:24:16.014Z,6.82
2018-05-25T19:28:49.353Z,6.50
2018-05-25T19:33:23.282Z,6.55
2018-05-25T19:37:57.234Z,6.07
2018-05-25T19:42:30.430Z,7.00
2018-05-25T19:47:03.635Z,7.03
2018-05-25T19:51:36.793Z,6.72
2018-05-25T19:56:09.984Z,6.68
2018-05-25T20:00:43.182Z,8.05
2018-05-25T20:05:16.382Z,7.87
2018-05-25T20:09:49.625Z,8.07
2018-05-25T20:14:22.802Z,7.37
2018-05-25T20:18:55.982Z,7.43
2018-05-25T20:23:29.411Z,7.62
2018-05-25T20:28:02.646Z,7.30
2018-05-25T20:32:35.995Z,6.93
2018-05-25T20:37:09.327Z,6.75
2018-05-25T20:41:42.601Z,6.85
2018-05-25T20:46:17.636Z,6.55
2018-05-25T20:50:50.841Z,7.80
2018-05-25T20:55:25.299Z,9.73
2018-05-25T20:59:58.626Z,8.90
2018-05-25T21:04:32.006Z,8.48
2018-05-25T21:09:06.899Z,7.75
2018-05-25T21:13:40.083Z,8.70
2018-05-25T21:18:18.194Z,8.40
2018-05-25T21:22:55.313Z,7.12
2018-05-25T21:27:31.221Z,7.80
2018-05-25T21:32:05.230Z,8.07
2018-05-25T21:36:38.414Z,8.40
2018-05-25T21:41:11.594Z,8.05
2018-05-25T21:45:45.547Z,8.45
2018-05-25T21:50:18.855Z,8.70
2018-05-25T21:54:52.022Z,8.77
2018-05-25T21:59:25.269Z,8.75
2018-05-25T22:03:58.461Z,8.85
2018-05-25T22:08:32.603Z,8.95
2018-05-25T22:13:05.926Z,8.88
2018-05-25T22:17:39.486Z,8.23
2018-05-25T22:22:12.829Z,8.48
2018-05-25T22:26:46.055Z,9.77
2018-05-25T22:31:22.927Z,8.57
2018-05-25T22:35:56.166Z,8.95
2018-05-25T22:40:29.836Z,9.63
2018-05-25T22:45:15.124Z,9.88
2018-05-25T22:50:01.103Z,10.02
2018-05-25T22:54:40.063Z,10.90
2018-05-25T22:59:14.054Z,10.70
2018-05-25T23:03:47.277Z,12.07
2018-05-25T23:08:20.538Z,11.63
2018-05-25T23:12:54.187Z,11.25
2018-05-25T23:17:27.401Z,11.43
2018-05-25T23:22:02.959Z,10.70
2018-05-25T23:26:36.274Z,10.82
2018-05-25T23:31:09.513Z,11.43
2018-05-25T23:35:43.470Z,11.75
2018-05-25T23:40:16.819Z,11.35
2018-05-25T23:44:50.249Z,12.10
2018-05-25T23:49:23.438Z,12.55
2018-05-25T23:53:57.425Z,12.10
2018-05-25T23:58:30.626Z,11.90
